createdAt,value
2023-05-04T00:00:35.034Z,5.28
2023-05-04T00:01:35.089Z,5.22
2023-05-04T00:02:35.282Z,5.18
2023-05-04T00:03:36.383Z,5.14
2023-05-04T00:04:35.395Z,5.08
2023-05-04T00:05:35.456Z,5.03
2023-05-04T00:06:35.509Z,4.99
2023-05-04T00:07:35.605Z,4.97
2023-05-04T00:08:35.694Z,4.95
2023-05-04T00:09:41.767Z,4.94
2023-05-04T00:10:35.880Z,4.94
2023-05-04T00:11:35.927Z,4.92
2023-05-04T00:12:36.075Z,4.88
2023-05-04T00:13:36.055Z,4.85
2023-05-04T00:14:36.154Z,4.81
2023-05-04T00:15:36.260Z,4.76
2023-05-04T00:16:36.350Z,4.69
2023-05-04T00:17:36.455Z,4.63
2023-05-04T00:18:36.468Z,4.57
2023-05-04T00:19:36.528Z,4.52
2023-05-04T00:20:36.616Z,4.49
2023-05-04T00:21:36.706Z,4.47
2023-05-04T00:22:36.774Z,4.47
2023-05-04T00:23:36.846Z,4.45
2023-05-04T00:24:36.920Z,4.44
2023-05-04T00:25:37.006Z,4.43
2023-05-04T00:26:37.118Z,4.43
2023-05-04T00:27:37.174Z,4.42
2023-05-04T00:28:37.307Z,4.41
2023-05-04T00:29:37.332Z,4.41
2023-05-04T00:30:37.419Z,4.40
2023-05-04T00:31:37.580Z,4.39
2023-05-04T00:32:38.161Z,4.38
2023-05-04T00:33:37.686Z,4.35
2023-05-04T00:34:37.787Z,4.32
2023-05-04T00:35:37.834Z,4.29
2023-05-04T00:36:37.925Z,4.27
2023-05-04T00:37:38.007Z,4.25
2023-05-04T00:38:38.080Z,4.22
2023-05-04T00:39:38.172Z,4.17
2023-05-04T00:40:44.247Z,4.10
2023-05-04T00:41:38.405Z,4.05
2023-05-04T00:42:38.416Z,4.00
2023-05-04T00:43:38.544Z,3.97
2023-05-04T00:44:38.588Z,3.93
2023-05-04T00:45:38.686Z,3.88
2023-05-04T00:46:38.778Z,3.84
2023-05-04T00:47:38.855Z,3.80
2023-05-04T00:48:38.923Z,3.80
2023-05-04T00:49:38.989Z,3.87
2023-05-04T00:50:39.071Z,3.97
2023-05-04T00:51:39.156Z,4.05
2023-05-04T00:52:39.242Z,4.10
2023-05-04T00:53:39.355Z,4.12
2023-05-04T00:54:39.421Z,4.12
2023-05-04T00:55:39.498Z,4.10
2023-05-04T00:56:39.597Z,4.07
2023-05-04T00:57:39.717Z,4.05
2023-05-04T00:58:39.766Z,4.02
2023-05-04T00:59:39.857Z,4.00
2023-05-04T01:00:39.973Z,3.99
2023-05-04T01:01:40.041Z,4.00
2023-05-04T01:02:40.168Z,4.02
2023-05-04T01:03:40.207Z,4.04
2023-05-04T01:04:40.281Z,4.06
2023-05-04T01:05:40.388Z,4.09
2023-05-04T01:06:40.490Z,4.13
2023-05-04T01:07:40.597Z,4.18
2023-05-04T01:08:40.655Z,4.23
2023-05-04T01:09:40.731Z,4.24
2023-05-04T01:10:40.818Z,4.23
2023-05-04T01:11:46.887Z,4.20
2023-05-04T01:12:41.023Z,4.14
2023-05-04T01:13:41.092Z,4.08
2023-05-04T01:14:41.174Z,4.01
2023-05-04T01:15:41.274Z,3.96
2023-05-04T01:16:41.453Z,3.91
2023-05-04T01:17:41.480Z,3.88
2023-05-04T01:18:41.517Z,3.87
2023-05-04T01:19:41.603Z,3.86
2023-05-04T01:20:41.696Z,3.86
2023-05-04T01:21:41.783Z,3.83
2023-05-04T01:22:41.851Z,3.79
2023-05-04T01:23:41.936Z,3.73
2023-05-04T01:24:42.019Z,3.67
2023-05-04T01:25:42.093Z,3.61
2023-05-04T01:26:42.176Z,3.54
2023-05-04T01:27:42.272Z,3.47
2023-05-04T01:28:42.365Z,3.39
2023-05-04T01:29:42.444Z,3.31
2023-05-04T01:30:42.552Z,3.25
2023-05-04T01:31:42.611Z,3.18
2023-05-04T01:32:42.735Z,3.11
2023-05-04T01:33:42.798Z,3.04
2023-05-04T01:34:42.881Z,2.99
2023-05-04T01:35:42.980Z,2.95
2023-05-04T01:36:43.057Z,2.89
2023-05-04T01:37:43.148Z,2.84
2023-05-04T01:38:43.229Z,2.77
2023-05-04T01:39:43.339Z,2.70
2023-05-04T01:40:43.402Z,2.68
2023-05-04T01:41:43.486Z,2.66
2023-05-04T01:42:49.577Z,2.67
2023-05-04T01:43:43.664Z,2.69
2023-05-04T01:44:43.755Z,2.72
2023-05-04T01:45:43.823Z,2.76
2023-05-04T01:46:43.967Z,2.82
2023-05-04T01:47:44.004Z,2.87
2023-05-04T01:48:44.109Z,2.93
2023-05-04T01:49:44.159Z,2.99
2023-05-04T01:50:44.213Z,3.05
2023-05-04T01:51:44.307Z,3.10
2023-05-04T01:52:44.399Z,3.12
2023-05-04T01:53:44.483Z,3.13
2023-05-04T01:54:44.577Z,3.13
2023-05-04T01:55:44.666Z,3.12
2023-05-04T01:56:44.746Z,3.11
2023-05-04T01:57:44.827Z,3.08
2023-05-04T01:58:44.917Z,3.06
2023-05-04T01:59:45.024Z,3.04
2023-05-04T02:00:45.124Z,3.01
2023-05-04T02:01:45.259Z,2.98
2023-05-04T02:02:45.369Z,2.95
2023-05-04T02:03:45.411Z,2.92
2023-05-04T02:04:45.417Z,2.90
2023-05-04T02:05:45.500Z,2.90
2023-05-04T02:06:45.596Z,2.90
2023-05-04T02:07:45.665Z,2.93
2023-05-04T02:08:45.755Z,2.96
2023-05-04T02:09:45.866Z,2.99
2023-05-04T02:10:45.907Z,3.02
2023-05-04T02:11:45.989Z,3.05
2023-05-04T02:12:46.112Z,3.08
2023-05-04T02:13:52.653Z,3.09
2023-05-04T02:14:46.259Z,3.10
2023-05-04T02:15:46.410Z,3.10
2023-05-04T02:16:46.401Z,3.10
2023-05-04T02:17:46.584Z,3.10
2023-05-04T02:18:46.666Z,3.10
2023-05-04T02:19:46.682Z,3.11
2023-05-04T02:20:46.773Z,3.10
2023-05-04T02:21:46.856Z,3.08
2023-05-04T02:22:46.926Z,3.06
2023-05-04T02:23:47.030Z,3.03
2023-05-04T02:24:47.154Z,3.00
2023-05-04T02:25:47.206Z,2.98
2023-05-04T02:26:47.290Z,2.96
2023-05-04T02:27:47.393Z,2.94
2023-05-04T02:28:47.434Z,2.92
2023-05-04T02:29:47.521Z,2.90
2023-05-04T02:30:47.623Z,2.88
2023-05-04T02:31:47.724Z,2.85
2023-05-04T02:32:47.794Z,2.80
2023-05-04T02:33:47.865Z,2.75
2023-05-04T02:34:47.923Z,2.70
2023-05-04T02:35:48.001Z,2.67
2023-05-04T02:36:48.100Z,2.64
2023-05-04T02:37:48.149Z,2.61
2023-05-04T02:38:48.235Z,2.58
2023-05-04T02:39:48.332Z,2.54
2023-05-04T02:40:48.393Z,2.48
2023-05-04T02:41:48.476Z,2.40
2023-05-04T02:42:48.595Z,2.33
2023-05-04T02:43:48.656Z,2.27
2023-05-04T02:44:54.730Z,2.23
2023-05-04T02:45:48.922Z,2.20
2023-05-04T02:46:48.878Z,2.18
2023-05-04T02:47:49.003Z,2.15
2023-05-04T02:48:49.072Z,2.11
2023-05-04T02:49:49.121Z,2.09
2023-05-04T02:50:49.227Z,2.11
2023-05-04T02:51:49.281Z,2.15
2023-05-04T02:52:49.371Z,2.22
2023-05-04T02:53:49.451Z,2.32
2023-05-04T02:54:51.743Z,2.44
2023-05-04T02:55:49.633Z,2.56
2023-05-04T02:56:49.694Z,2.67
2023-05-04T02:57:49.778Z,2.75
2023-05-04T02:58:49.862Z,2.81
2023-05-04T02:59:49.951Z,2.83
2023-05-04T03:00:50.137Z,2.82
2023-05-04T03:01:50.157Z,2.79
2023-05-04T03:02:50.238Z,2.74
2023-05-04T03:03:50.326Z,2.69
2023-05-04T03:04:50.366Z,2.64
2023-05-04T03:05:50.451Z,2.60
2023-05-04T03:06:50.531Z,2.57
2023-05-04T03:07:50.611Z,2.55
2023-05-04T03:08:50.738Z,2.53
2023-05-04T03:09:50.749Z,2.52
2023-05-04T03:10:50.829Z,2.51
2023-05-04T03:11:50.945Z,2.51
2023-05-04T03:12:51.058Z,2.51
2023-05-04T03:13:51.084Z,2.49
2023-05-04T03:14:51.173Z,2.46
2023-05-04T03:15:57.757Z,2.43
2023-05-04T03:16:51.499Z,2.39
2023-05-04T03:17:51.455Z,2.34
2023-05-04T03:19:12.492Z,2.28
2023-05-04T03:19:51.554Z,2.19
2023-05-04T03:20:51.615Z,2.10
2023-05-04T03:21:51.678Z,2.03
2023-05-04T03:22:51.786Z,1.97
2023-05-04T03:23:51.867Z,1.90
2023-05-04T03:24:51.964Z,1.84
2023-05-04T03:25:52.047Z,1.79
2023-05-04T03:26:52.136Z,1.75
2023-05-04T03:27:52.225Z,1.71
2023-05-04T03:28:52.326Z,1.69
2023-05-04T03:29:52.427Z,1.67
2023-05-04T03:30:52.494Z,1.68
2023-05-04T03:31:52.631Z,1.69
2023-05-04T03:32:52.763Z,1.69
2023-05-04T03:33:52.739Z,1.69
2023-05-04T03:34:52.830Z,1.70
2023-05-04T03:35:52.906Z,1.72
2023-05-04T03:36:52.992Z,1.75
2023-05-04T03:37:53.065Z,1.78
2023-05-04T03:38:53.143Z,1.80
2023-05-04T03:39:53.228Z,1.84
2023-05-04T03:40:53.335Z,1.89
2023-05-04T03:41:53.420Z,1.94
2023-05-04T03:42:53.566Z,1.96
2023-05-04T03:43:53.592Z,1.97
2023-05-04T03:44:53.655Z,1.97
2023-05-04T03:45:53.758Z,1.99
2023-05-04T03:46:59.824Z,2.04
2023-05-04T03:47:53.947Z,2.13
2023-05-04T03:48:53.999Z,2.22
2023-05-04T03:49:54.090Z,2.31
2023-05-04T03:50:54.169Z,2.38
2023-05-04T03:51:54.222Z,2.45
2023-05-04T03:52:54.322Z,2.48
2023-05-04T03:53:54.449Z,2.49
2023-05-04T03:54:54.503Z,2.48
2023-05-04T03:55:54.596Z,2.45
2023-05-04T03:56:54.651Z,2.42
2023-05-04T03:57:54.736Z,2.39
2023-05-04T03:58:54.834Z,2.36
2023-05-04T03:59:57.571Z,2.33
2023-05-04T04:00:55.018Z,2.30
2023-05-04T04:01:55.099Z,2.27
2023-05-04T04:02:55.210Z,2.24
2023-05-04T04:03:55.387Z,2.23
2023-05-04T04:04:55.338Z,2.25
2023-05-04T04:05:55.420Z,2.26
2023-05-04T04:06:55.513Z,2.27
2023-05-04T04:07:55.608Z,2.28
2023-05-04T04:08:55.691Z,2.30
2023-05-04T04:09:55.763Z,2.34
2023-05-04T04:10:55.838Z,2.38
2023-05-04T04:11:55.921Z,2.42
2023-05-04T04:12:56.065Z,2.46
2023-05-04T04:13:56.101Z,2.50
2023-05-04T04:14:56.172Z,2.53
2023-05-04T04:15:56.280Z,2.56
2023-05-04T04:16:56.348Z,2.58
2023-05-04T04:18:02.513Z,2.61
2023-05-04T04:18:56.531Z,2.63
2023-05-04T04:19:56.615Z,2.66
2023-05-04T04:20:56.706Z,2.72
2023-05-04T04:21:56.791Z,2.78
2023-05-04T04:22:56.886Z,2.86
2023-05-04T04:23:56.966Z,2.93
2023-05-04T04:24:57.040Z,2.99
2023-05-04T04:25:57.161Z,3.04
2023-05-04T04:26:57.214Z,3.09
2023-05-04T04:27:57.286Z,3.14
2023-05-04T04:28:57.375Z,3.19
2023-05-04T04:29:57.457Z,3.25
2023-05-04T04:30:57.561Z,3.30
2023-05-04T04:31:57.714Z,3.34
2023-05-04T04:32:57.741Z,3.39
2023-05-04T04:33:57.796Z,3.44
2023-05-04T04:34:57.894Z,3.49
2023-05-04T04:35:57.955Z,3.54
2023-05-04T04:36:58.044Z,3.60
2023-05-04T04:37:58.126Z,3.66
2023-05-04T04:38:58.270Z,3.72
2023-05-04T04:39:58.316Z,3.77
2023-05-04T04:40:58.388Z,3.81
2023-05-04T04:41:58.470Z,3.87
2023-05-04T04:42:58.568Z,3.92
2023-05-04T04:43:58.619Z,3.97
2023-05-04T04:44:58.725Z,4.02
2023-05-04T04:45:58.783Z,4.07
2023-05-04T04:46:58.944Z,4.14
2023-05-04T04:47:58.948Z,4.19
2023-05-04T04:49:05.055Z,4.25
2023-05-04T04:49:59.110Z,4.32
2023-05-04T04:50:59.208Z,4.38
2023-05-04T04:51:59.275Z,4.44
2023-05-04T04:52:59.379Z,4.50
2023-05-04T04:53:59.475Z,4.57
2023-05-04T04:54:59.526Z,4.63
2023-05-04T04:55:59.594Z,4.71
2023-05-04T04:56:59.674Z,4.78
2023-05-04T04:57:59.763Z,4.85
2023-05-04T04:58:59.830Z,4.93
2023-05-04T04:59:59.913Z,5.03
2023-05-04T05:01:00.034Z,5.12
2023-05-04T05:02:00.153Z,5.18
2023-05-04T05:03:00.273Z,5.25
2023-05-04T05:04:00.239Z,5.31
2023-05-04T05:05:00.508Z,5.39
2023-05-04T05:06:00.404Z,5.51
2023-05-04T05:07:00.500Z,5.66
2023-05-04T05:08:00.595Z,5.87
2023-05-04T05:09:00.696Z,6.13
2023-05-04T05:10:00.779Z,6.39
2023-05-04T05:11:00.866Z,6.67
2023-05-04T05:12:00.921Z,6.89
2023-05-04T05:13:01.094Z,7.04
2023-05-04T05:14:01.108Z,7.18
2023-05-04T05:15:01.197Z,7.32
2023-05-04T05:16:01.266Z,7.47
2023-05-04T05:17:01.412Z,7.61
2023-05-04T05:18:01.484Z,7.73
2023-05-04T05:19:01.526Z,7.84
2023-05-04T05:20:08.093Z,7.99
2023-05-04T05:21:01.733Z,8.16
2023-05-04T05:22:01.781Z,8.29
2023-05-04T05:23:01.873Z,8.40
2023-05-04T05:24:01.959Z,8.53
2023-05-04T05:25:02.029Z,8.64
2023-05-04T05:26:03.364Z,8.73
2023-05-04T05:27:02.182Z,8.81
2023-05-04T05:28:02.258Z,8.91
2023-05-04T05:29:02.338Z,9.01
2023-05-04T05:30:02.666Z,9.12
2023-05-04T05:31:02.540Z,9.22
2023-05-04T05:32:02.602Z,9.32
2023-05-04T05:33:02.698Z,9.41
2023-05-04T05:34:02.768Z,9.48
2023-05-04T05:35:02.853Z,9.58
2023-05-04T05:36:02.930Z,9.67
2023-05-04T05:37:03.005Z,9.76
2023-05-04T05:38:03.120Z,9.81
2023-05-04T05:39:03.153Z,9.79
2023-05-04T05:40:03.408Z,9.77
2023-05-04T05:41:03.328Z,9.78
2023-05-04T05:42:03.411Z,9.79
2023-05-04T05:43:03.500Z,9.77
2023-05-04T05:44:03.606Z,9.77
2023-05-04T05:45:03.666Z,9.81
2023-05-04T05:46:03.733Z,9.83
2023-05-04T05:47:03.834Z,9.89
2023-05-04T05:48:04.121Z,10.01
2023-05-04T05:49:03.967Z,10.15
2023-05-04T05:50:04.328Z,10.32
2023-05-04T05:51:10.124Z,10.45
2023-05-04T05:52:04.215Z,10.53
2023-05-04T05:53:04.288Z,10.61
2023-05-04T05:54:04.331Z,10.70
2023-05-04T05:55:04.413Z,10.74
2023-05-04T05:56:04.499Z,10.75
2023-05-04T05:57:04.596Z,10.78
2023-05-04T05:58:04.682Z,10.80
2023-05-04T05:59:04.783Z,10.79
2023-05-04T06:00:04.989Z,10.77
2023-05-04T06:01:04.920Z,10.76
2023-05-04T06:02:05.012Z,10.80
2023-05-04T06:03:05.140Z,10.84
2023-05-04T06:04:05.408Z,10.89
2023-05-04T06:05:05.495Z,10.98
2023-05-04T06:06:05.419Z,11.05
2023-05-04T06:07:05.436Z,11.10
2023-05-04T06:08:05.553Z,11.13
2023-05-04T06:09:05.568Z,11.12
2023-05-04T06:10:05.928Z,11.10
2023-05-04T06:11:05.753Z,11.00
2023-05-04T06:12:05.799Z,10.88
2023-05-04T06:13:05.921Z,10.82
2023-05-04T06:14:06.018Z,10.80
2023-05-04T06:15:06.068Z,10.82
2023-05-04T06:16:06.230Z,10.85
2023-05-04T06:17:06.299Z,10.91
2023-05-04T06:18:06.382Z,10.98
2023-05-04T06:19:06.419Z,11.06
2023-05-04T06:20:06.710Z,11.17
2023-05-04T06:21:06.611Z,11.26
2023-05-04T06:22:13.731Z,11.34
2023-05-04T06:23:06.810Z,11.40
2023-05-04T06:24:06.918Z,11.47
2023-05-04T06:25:08.121Z,11.55
2023-05-04T06:26:07.037Z,11.65
2023-05-04T06:27:07.154Z,11.76
2023-05-04T06:28:07.210Z,11.84
2023-05-04T06:29:07.341Z,11.86
2023-05-04T06:30:07.755Z,11.91
2023-05-04T06:31:07.523Z,12.05
2023-05-04T06:32:07.639Z,12.24
2023-05-04T06:33:07.739Z,12.41
2023-05-04T06:34:07.716Z,12.52
2023-05-04T06:35:07.781Z,12.62
2023-05-04T06:36:07.896Z,12.67
2023-05-04T06:37:07.960Z,12.69
2023-05-04T06:38:08.048Z,12.76
2023-05-04T06:39:08.204Z,12.91
2023-05-04T06:40:08.632Z,13.04
2023-05-04T06:41:08.304Z,13.14
2023-05-04T06:42:08.367Z,13.26
2023-05-04T06:43:08.465Z,13.39
2023-05-04T06:44:08.571Z,13.49
2023-05-04T06:45:08.650Z,13.61
2023-05-04T06:46:08.778Z,13.74
2023-05-04T06:47:08.841Z,13.82
2023-05-04T06:48:09.014Z,13.88
2023-05-04T06:49:09.083Z,13.92
2023-05-04T06:50:09.093Z,13.98
2023-05-04T06:51:09.220Z,14.12
2023-05-04T06:52:09.284Z,14.30
2023-05-04T06:53:15.442Z,14.46
2023-05-04T06:54:09.416Z,14.59
2023-05-04T06:55:09.531Z,14.70
2023-05-04T06:56:09.610Z,14.79
2023-05-04T06:57:09.700Z,14.86
2023-05-04T06:58:09.789Z,14.95
2023-05-04T06:59:09.846Z,15.08
2023-05-04T07:00:09.974Z,15.24
2023-05-04T07:01:10.056Z,15.42
2023-05-04T07:02:10.169Z,15.55
2023-05-04T07:03:10.246Z,15.60
2023-05-04T07:04:10.317Z,15.68
2023-05-04T07:05:10.349Z,15.77
2023-05-04T07:06:10.448Z,15.84
2023-05-04T07:07:10.517Z,15.94
2023-05-04T07:08:10.575Z,16.06
2023-05-04T07:09:10.671Z,16.04
2023-05-04T07:10:10.770Z,16.00
2023-05-04T07:11:10.864Z,16.07
2023-05-04T07:12:10.920Z,16.14
2023-05-04T07:13:11.142Z,16.11
2023-05-04T07:14:11.104Z,16.03
2023-05-04T07:15:11.206Z,15.98
2023-05-04T07:16:11.349Z,16.01
2023-05-04T07:17:11.379Z,16.17
2023-05-04T07:18:11.555Z,16.38
2023-05-04T07:19:11.550Z,16.59
2023-05-04T07:20:11.620Z,16.73
2023-05-04T07:21:26.839Z,16.87
2023-05-04T07:22:11.793Z,17.05
2023-05-04T07:23:11.827Z,17.21
2023-05-04T07:24:17.959Z,17.36
2023-05-04T07:25:11.999Z,17.54
2023-05-04T07:26:12.100Z,17.70
2023-05-04T07:27:12.156Z,17.84
2023-05-04T07:28:12.272Z,17.98
2023-05-04T07:29:12.348Z,18.12
2023-05-04T07:30:12.447Z,18.26
2023-05-04T07:31:12.505Z,18.28
2023-05-04T07:32:12.666Z,18.24
2023-05-04T07:33:12.721Z,18.16
2023-05-04T07:34:12.764Z,18.16
2023-05-04T07:35:12.918Z,18.29
2023-05-04T07:36:12.925Z,18.41
2023-05-04T07:37:12.982Z,18.54
2023-05-04T07:38:13.073Z,18.78
2023-05-04T07:39:13.168Z,19.05
2023-05-04T07:40:13.268Z,19.26
2023-05-04T07:41:13.336Z,19.41
2023-05-04T07:42:13.446Z,19.53
2023-05-04T07:43:13.524Z,19.53
2023-05-04T07:44:13.601Z,19.51
2023-05-04T07:45:13.659Z,19.51
2023-05-04T07:46:13.982Z,19.58
2023-05-04T07:47:13.850Z,19.69
2023-05-04T07:48:13.973Z,19.77
2023-05-04T07:49:14.065Z,19.82
2023-05-04T07:50:14.585Z,19.80
2023-05-04T07:51:14.179Z,19.80
2023-05-04T07:52:14.276Z,19.91
2023-05-04T07:53:14.372Z,20.12
2023-05-04T07:54:14.435Z,20.33
2023-05-04T07:55:20.482Z,20.43
2023-05-04T07:56:14.555Z,20.51
2023-05-04T07:57:14.620Z,20.57
2023-05-04T07:58:14.734Z,20.56
2023-05-04T07:59:14.809Z,20.36
2023-05-04T08:00:14.875Z,20.16
2023-05-04T08:01:14.972Z,20.14
2023-05-04T08:02:15.079Z,20.21
2023-05-04T08:03:15.174Z,20.38
2023-05-04T08:04:15.192Z,20.62
2023-05-04T08:05:15.275Z,20.92
2023-05-04T08:06:15.383Z,21.05
2023-05-04T08:07:15.458Z,21.01
2023-05-04T08:08:15.520Z,20.98
2023-05-04T08:09:15.572Z,21.03
2023-05-04T08:10:15.650Z,21.13
2023-05-04T08:11:20.719Z,21.24
2023-05-04T08:12:15.804Z,21.44
2023-05-04T08:13:15.992Z,21.70
2023-05-04T08:14:15.962Z,22.02
2023-05-04T08:15:16.043Z,22.33
2023-05-04T08:16:16.100Z,22.51
2023-05-04T08:17:16.192Z,22.53
2023-05-04T08:18:16.287Z,22.45
2023-05-04T08:19:16.373Z,22.44
2023-05-04T08:20:16.478Z,22.50
2023-05-04T08:21:16.573Z,22.55
2023-05-04T08:22:16.658Z,22.63
2023-05-04T08:23:16.693Z,22.65
2023-05-04T08:24:16.802Z,22.55
2023-05-04T08:25:16.904Z,22.42
2023-05-04T08:26:22.958Z,22.34
2023-05-04T08:27:17.052Z,22.21
2023-05-04T08:28:17.135Z,22.03
2023-05-04T08:29:17.227Z,21.83
2023-05-04T08:30:17.349Z,21.72
2023-05-04T08:31:17.434Z,21.73
2023-05-04T08:32:17.458Z,21.78
2023-05-04T08:33:17.522Z,21.90
2023-05-04T08:34:17.651Z,22.10
2023-05-04T08:35:17.726Z,22.24
2023-05-04T08:36:17.798Z,22.33
2023-05-04T08:37:17.883Z,22.34
2023-05-04T08:38:17.943Z,22.24
2023-05-04T08:39:18.033Z,22.04
2023-05-04T08:40:18.088Z,21.83
2023-05-04T08:41:18.181Z,21.69
2023-05-04T08:42:18.279Z,21.61
2023-05-04T08:43:18.373Z,21.60
2023-05-04T08:44:18.468Z,21.72
2023-05-04T08:45:18.561Z,21.80
2023-05-04T08:46:18.676Z,21.88
2023-05-04T08:47:18.694Z,21.93
2023-05-04T08:48:18.787Z,21.89
2023-05-04T08:49:18.848Z,21.77
2023-05-04T08:50:18.943Z,21.73
2023-05-04T08:51:19.088Z,21.87
2023-05-04T08:52:19.127Z,22.11
2023-05-04T08:53:19.221Z,22.21
2023-05-04T08:54:19.326Z,22.28
2023-05-04T08:55:19.421Z,22.40
2023-05-04T08:56:19.482Z,22.41
2023-05-04T08:57:26.205Z,22.34
2023-05-04T08:58:19.615Z,22.35
2023-05-04T08:59:19.713Z,22.35
2023-05-04T09:00:19.819Z,22.33
2023-05-04T09:01:20.032Z,22.35
2023-05-04T09:02:19.966Z,22.38
2023-05-04T09:03:20.134Z,22.37
2023-05-04T09:04:20.128Z,22.39
2023-05-04T09:05:20.226Z,22.48
2023-05-04T09:06:20.314Z,22.52
2023-05-04T09:07:20.470Z,22.55
2023-05-04T09:08:20.507Z,22.63
2023-05-04T09:09:20.587Z,22.59
2023-05-04T09:10:20.671Z,22.53
2023-05-04T09:11:20.718Z,22.57
2023-05-04T09:12:20.775Z,22.73
2023-05-04T09:13:20.827Z,22.86
2023-05-04T09:14:20.892Z,22.93
2023-05-04T09:15:21.032Z,22.91
2023-05-04T09:16:21.093Z,22.81
2023-05-04T09:17:21.178Z,22.74
2023-05-04T09:18:21.274Z,22.52
2023-05-04T09:19:21.353Z,22.17
2023-05-04T09:20:21.438Z,22.04
2023-05-04T09:21:21.520Z,22.10
2023-05-04T09:22:21.589Z,22.22
2023-05-04T09:23:21.685Z,22.32
2023-05-04T09:24:21.738Z,22.42
2023-05-04T09:25:21.848Z,22.47
2023-05-04T09:26:21.921Z,22.53
2023-05-04T09:27:22.005Z,22.73
2023-05-04T09:28:28.883Z,22.98
2023-05-04T09:29:22.167Z,23.18
2023-05-04T09:30:22.217Z,23.26
2023-05-04T09:31:22.378Z,23.37
2023-05-04T09:32:22.439Z,23.56
2023-05-04T09:33:22.457Z,23.67
2023-05-04T09:34:22.576Z,23.64
2023-05-04T09:35:32.400Z,23.67
2023-05-04T09:36:22.737Z,23.75
2023-05-04T09:37:22.789Z,23.72
2023-05-04T09:38:22.916Z,23.53
2023-05-04T09:39:22.978Z,23.34
2023-05-04T09:40:23.069Z,22.65
2023-05-04T09:41:23.130Z,21.74
2023-05-04T09:42:23.219Z,21.30
2023-05-04T09:43:23.329Z,21.33
2023-05-04T09:44:23.406Z,21.62
2023-05-04T09:45:23.456Z,22.03
2023-05-04T09:46:23.589Z,22.41
2023-05-04T09:47:23.635Z,22.77
2023-05-04T09:48:23.758Z,23.05
2023-05-04T09:49:23.779Z,23.28
2023-05-04T09:50:23.845Z,23.41
2023-05-04T09:51:23.993Z,23.45
2023-05-04T09:52:24.002Z,23.47
2023-05-04T09:53:24.067Z,23.46
2023-05-04T09:54:24.147Z,23.46
2023-05-04T09:55:24.207Z,23.52
2023-05-04T09:56:24.297Z,23.68
2023-05-04T09:57:24.880Z,23.89
2023-05-04T09:58:24.461Z,23.84
2023-05-04T09:59:31.273Z,23.66
2023-05-04T10:00:24.652Z,23.63
2023-05-04T10:01:24.775Z,23.63
2023-05-04T10:02:24.936Z,23.64
2023-05-04T10:03:24.982Z,23.74
2023-05-04T10:04:25.037Z,23.78
2023-05-04T10:05:25.119Z,23.79
2023-05-04T10:06:25.131Z,23.81
2023-05-04T10:07:25.238Z,23.76
2023-05-04T10:08:25.325Z,23.75
2023-05-04T10:09:25.449Z,23.90
2023-05-04T10:10:25.514Z,24.03
2023-05-04T10:11:25.646Z,24.16
2023-05-04T10:12:25.684Z,24.28
2023-05-04T10:13:25.785Z,24.33
2023-05-04T10:14:25.839Z,24.30
2023-05-04T10:15:25.943Z,24.26
2023-05-04T10:16:26.045Z,24.26
2023-05-04T10:17:26.130Z,24.22
2023-05-04T10:18:26.760Z,24.19
2023-05-04T10:19:26.239Z,24.13
2023-05-04T10:20:26.342Z,24.08
2023-05-04T10:21:26.434Z,24.11
2023-05-04T10:22:26.542Z,23.73
2023-05-04T10:23:26.600Z,22.76
2023-05-04T10:24:26.693Z,22.04
2023-05-04T10:25:26.803Z,21.93
2023-05-04T10:26:26.870Z,22.13
2023-05-04T10:27:26.939Z,22.35
2023-05-04T10:28:26.988Z,22.63
2023-05-04T10:29:27.089Z,22.95
2023-05-04T10:30:33.305Z,23.18
2023-05-04T10:31:27.249Z,23.42
2023-05-04T10:32:27.314Z,23.63
2023-05-04T10:33:27.358Z,23.85
2023-05-04T10:34:27.469Z,24.15
2023-05-04T10:35:27.522Z,24.30
2023-05-04T10:36:27.625Z,24.12
2023-05-04T10:37:27.680Z,23.91
2023-05-04T10:38:27.791Z,23.81
2023-05-04T10:39:27.842Z,23.77
2023-05-04T10:40:27.906Z,23.78
2023-05-04T10:41:27.967Z,23.89
2023-05-04T10:42:28.035Z,24.03
2023-05-04T10:43:28.084Z,24.09
2023-05-04T10:44:28.187Z,24.11
2023-05-04T10:45:28.265Z,24.01
2023-05-04T10:46:28.364Z,23.88
2023-05-04T10:47:28.468Z,23.81
2023-05-04T10:48:28.522Z,23.82
2023-05-04T10:49:28.572Z,23.91
2023-05-04T10:50:28.662Z,23.99
2023-05-04T10:51:38.891Z,23.95
2023-05-04T10:52:28.835Z,23.94
2023-05-04T10:53:28.928Z,24.00
2023-05-04T10:54:29.032Z,24.18
2023-05-04T10:55:29.089Z,24.46
2023-05-04T10:56:29.214Z,24.73
2023-05-04T10:57:29.271Z,24.90
2023-05-04T10:58:29.329Z,24.90
2023-05-04T10:59:29.427Z,24.85
2023-05-04T11:00:29.538Z,24.75
2023-05-04T11:01:35.888Z,24.69
2023-05-04T11:02:32.419Z,24.71
2023-05-04T11:03:29.914Z,24.53
2023-05-04T11:04:29.781Z,24.32
2023-05-04T11:05:29.872Z,24.32
2023-05-04T11:06:29.971Z,24.36
2023-05-04T11:07:30.031Z,24.32
2023-05-04T11:08:30.131Z,24.28
2023-05-04T11:09:30.243Z,24.26
2023-05-04T11:10:30.301Z,24.21
2023-05-04T11:11:30.384Z,24.16
2023-05-04T11:12:30.514Z,24.26
2023-05-04T11:13:30.577Z,24.47
2023-05-04T11:14:30.622Z,24.72
2023-05-04T11:15:30.723Z,24.97
2023-05-04T11:16:30.847Z,25.17
2023-05-04T11:17:30.913Z,25.13
2023-05-04T11:18:31.161Z,24.90
2023-05-04T11:19:31.060Z,24.67
2023-05-04T11:20:31.128Z,24.51
2023-05-04T11:21:31.189Z,24.50
2023-05-04T11:22:31.273Z,24.48
2023-05-04T11:23:31.330Z,24.42
2023-05-04T11:24:31.414Z,24.44
2023-05-04T11:25:31.510Z,24.49
2023-05-04T11:26:31.606Z,24.49
2023-05-04T11:27:31.731Z,24.48
2023-05-04T11:28:31.758Z,24.58
2023-05-04T11:29:31.821Z,24.76
2023-05-04T11:30:31.910Z,24.94
2023-05-04T11:31:32.032Z,25.14
2023-05-04T11:32:38.669Z,25.30
2023-05-04T11:33:32.172Z,25.33
2023-05-04T11:34:32.226Z,25.26
2023-05-04T11:35:32.376Z,25.23
2023-05-04T11:36:32.386Z,25.30
2023-05-04T11:37:32.466Z,25.25
2023-05-04T11:38:32.533Z,25.14
2023-05-04T11:39:32.606Z,25.18
2023-05-04T11:40:32.653Z,25.32
2023-05-04T11:41:32.749Z,25.48
2023-05-04T11:42:32.851Z,25.43
2023-05-04T11:43:33.065Z,25.28
2023-05-04T11:44:33.023Z,25.21
2023-05-04T11:45:33.087Z,25.15
2023-05-04T11:46:33.230Z,25.13
2023-05-04T11:47:33.290Z,25.22
2023-05-04T11:48:33.337Z,25.36
2023-05-04T11:49:33.390Z,25.51
2023-05-04T11:50:33.496Z,25.65
2023-05-04T11:51:33.583Z,25.74
2023-05-04T11:52:33.670Z,25.76
2023-05-04T11:53:33.786Z,25.75
2023-05-04T11:54:33.874Z,25.74
2023-05-04T11:55:33.960Z,25.82
2023-05-04T11:56:34.024Z,25.94
2023-05-04T11:57:34.085Z,26.06
2023-05-04T11:58:34.177Z,26.11
2023-05-04T11:59:34.279Z,26.14
2023-05-04T12:00:34.452Z,26.09
2023-05-04T12:01:34.468Z,26.02
2023-05-04T12:02:34.596Z,25.89
2023-05-04T12:03:53.067Z,25.66
2023-05-04T12:04:34.741Z,25.57
2023-05-04T12:05:34.862Z,25.69
2023-05-04T12:06:34.875Z,25.85
2023-05-04T12:07:34.933Z,25.98
2023-05-04T12:08:35.064Z,26.03
2023-05-04T12:09:35.119Z,26.06
2023-05-04T12:10:35.217Z,26.12
2023-05-04T12:11:35.247Z,26.21
2023-05-04T12:12:35.367Z,26.34
2023-05-04T12:13:35.379Z,26.57
2023-05-04T12:14:35.478Z,26.79
2023-05-04T12:15:35.549Z,26.88
2023-05-04T12:16:35.631Z,26.88
2023-05-04T12:17:35.670Z,26.85
2023-05-04T12:18:35.736Z,26.78
2023-05-04T12:19:35.830Z,26.61
2023-05-04T12:20:35.901Z,26.48
2023-05-04T12:21:36.053Z,26.45
2023-05-04T12:22:36.048Z,26.44
2023-05-04T12:23:36.137Z,26.43
2023-05-04T12:24:36.276Z,26.41
2023-05-04T12:25:44.122Z,26.24
2023-05-04T12:26:36.435Z,25.93
2023-05-04T12:27:36.487Z,25.57
2023-05-04T12:28:36.589Z,25.26
2023-05-04T12:29:36.683Z,25.14
2023-05-04T12:30:36.776Z,25.15
2023-05-04T12:31:36.885Z,25.12
2023-05-04T12:32:36.966Z,25.10
2023-05-04T12:33:37.032Z,25.15
2023-05-04T12:34:43.142Z,25.10
2023-05-04T12:35:37.226Z,24.97
2023-05-04T12:36:37.233Z,24.59
2023-05-04T12:37:37.346Z,24.15
2023-05-04T12:38:37.413Z,23.79
2023-05-04T12:39:37.467Z,23.57
2023-05-04T12:40:37.572Z,23.58
2023-05-04T12:41:37.640Z,23.66
2023-05-04T12:42:37.728Z,23.76
2023-05-04T12:43:37.774Z,23.87
2023-05-04T12:44:37.866Z,24.03
2023-05-04T12:45:37.939Z,24.10
2023-05-04T12:46:38.111Z,23.98
2023-05-04T12:47:38.132Z,23.81
2023-05-04T12:48:38.191Z,23.75
2023-05-04T12:49:38.294Z,23.83
2023-05-04T12:50:38.390Z,23.96
2023-05-04T12:51:38.469Z,24.06
2023-05-04T12:52:38.537Z,24.08
2023-05-04T12:53:38.616Z,24.12
2023-05-04T12:54:38.737Z,24.14
2023-05-04T12:55:38.818Z,24.06
2023-05-04T12:56:38.920Z,23.94
2023-05-04T12:57:38.981Z,23.87
2023-05-04T12:58:39.033Z,23.85
2023-05-04T12:59:39.134Z,23.89
2023-05-04T13:00:39.195Z,23.97
2023-05-04T13:01:39.320Z,24.08
2023-05-04T13:02:39.434Z,24.13
2023-05-04T13:03:39.648Z,24.15
2023-05-04T13:04:39.555Z,24.18